KLKV/LKV METAR and TAF weather

Enter ICAO airport designator
Station Type Date Time Source
KLKV METAR 2022/12/08 13:53 UTC NOAA

KLKV 081353Z AUTO 17014KT 10SM OVC037 M02/M05 A3014 RMK AO2 SLP274 T10221050 FZRANO


Station Type Date Time Source
KLKV Decoded METAR 2022/12/08 13:53 UTC NOAA

Lakeview, Lake County Airport, OR, United States (KLKV) 42-10N 120-24W
Dec 08, 2022 - 08:53 AM EST / 2022.12.08 1353 UTC
Wind: from the S (170 degrees) at 16 MPH (14 KT):0
Visibility: 10 mile(s):0
Sky conditions: overcast
Temperature: 28.0 F (-2.2 C)
Windchill: 15 F (-9 C):1
Dew Point: 23.0 F (-5.0 C)
Relative Humidity: 81%
Pressure (altimeter): 30.14 in. Hg (1020 hPa)
ob: KLKV 081353Z AUTO 17014KT 10SM OVC037 M02/M05 A3014 RMK AO2 SLP274 T10221050 FZRANO
cycle: 14

Station Type Date Time Source
KLKV TAF UTC NOAA

Error!

Example: see airport list